Central Oregon RPC :: DREWSEY B

liberation: 2021-08-21  07:30     latitude: 43.807153     longitude: -118.378439 184 birds
# LOFT PRING MILES ARRIVAL SPEED ToWin
1 ROCKY TOP AU21-CORP-0764 137.131 2021-08-21 10:39:30.136 1273.599 00:00:00
2 ROCKY TOP AU21-CORP-0704 137.131 2021-08-21 10:39:32.953 1273.284 00:00:03
3 ROCKY TOP AU21-CORP-0762 137.131 2021-08-21 10:39:33.843 1273.184 00:00:04
4 ROCKY TOP AU21-CORP-0755 137.131 2021-08-21 10:39:35.016 1273.053 00:00:05
5 ROCKY TOP AU21-CORP-0744 137.131 2021-08-21 10:39:38.628 1272.649 00:00:08
6 ROCKY TOP AU21-CORP-0722 137.131 2021-08-21 10:39:42.772 1272.185 00:00:13
7 ROCKY TOP AU21-JEDD-11824 137.131 2021-08-21 10:39:43.151 1272.143 00:00:13
8 ROCKY TOP AU21-CORP-0745 137.131 2021-08-21 10:39:43.546 1272.099 00:00:13
9 ROCKY TOP AU21-CORP-0724 137.131 2021-08-21 10:39:48.636 1271.530 00:00:19
10 ROCKY TOP AU21-ARPU-11208 137.131 2021-08-21 10:39:48.737 1271.519 00:00:19
11 ROCKY TOP AU21-CORP-0763 137.131 2021-08-21 10:40:14.768 1268.619 00:00:45
12 ROCKY TOP AU21-CORP-0754 137.131 2021-08-21 10:40:47.774 1264.962 00:01:18
13 AMERICAN LOFT AU21-CORP-0350 128.045 2021-08-21 10:31:24.455 1242.283 00:04:28
14 AMERICAN LOFT AU21-CORP-0315 128.045 2021-08-21 10:31:24.865 1242.236 00:04:28
15 STEELE LOFT AU21-CORP-0147 146.385 2021-08-21 10:58:39.094 1234.773 00:06:22
16 STEELE LOFT AU21-CORP-0128 146.385 2021-08-21 10:58:40.326 1234.651 00:06:23
17 STEELE LOFT AU21-CORP-0138 146.385 2021-08-21 10:58:40.725 1234.612 00:06:23
18 STEELE LOFT AU21-CORP-0166 146.385 2021-08-21 10:58:42.150 1234.472 00:06:25
19 STEELE LOFT AU21-CORP-0158 146.385 2021-08-21 10:58:42.986 1234.389 00:06:26
20 STEELE LOFT AU21-CORP-0126 146.385 2021-08-21 10:58:45.606 1234.131 00:06:28
21 STEELE LOFT AU21-CORP-0122 146.385 2021-08-21 10:58:48.525 1233.843 00:06:31
22 STEELE LOFT AU21-CORP-0112 146.385 2021-08-21 10:58:52.293 1233.472 00:06:35
23 TOPIGEONUSA AU21-MDC-1211 145.351 2021-08-21 10:58:22.975 1227.629 00:07:31
24 STEELE LOFT AU21-CORP-0200 146.385 2021-08-21 11:00:24.844 1224.430 00:08:07
25 STEELE LOFT AU21-BORD-21046 146.385 2021-08-21 11:00:26.599 1224.260 00:08:09
26 STEELE LOFT AU21-CORP-0252 146.385 2021-08-21 11:00:28.596 1224.066 00:08:11
27 STEELE LOFT AU21-CORP-0181 146.385 2021-08-21 11:00:38.932 1223.065 00:08:21
28 STEELE LOFT AU21-CORP-0157 146.385 2021-08-21 11:00:40.099 1222.952 00:08:23
29 STEELE LOFT AU21-CORP-0175 146.385 2021-08-21 11:00:43.040 1222.668 00:08:26
30 STEELE LOFT AU21-CORP-0105 146.385 2021-08-21 11:00:44.186 1222.557 00:08:27
31 STEELE LOFT AU21-CORP-0111 146.385 2021-08-21 11:00:47.174 1222.268 00:08:30
32 STEELE LOFT AU21-CORP-0121 146.385 2021-08-21 11:00:55.201 1221.493 00:08:38
33 ROCKY TOP AU21-CORP-0774 137.131 2021-08-21 10:48:43.711 1214.470 00:09:14
34 ROCKY TOP AU21-RARE-0008 137.131 2021-08-21 10:48:48.525 1213.980 00:09:18
35 ROCKY TOP AU21-CORP-0712 137.131 2021-08-21 10:48:52.027 1213.624 00:09:22
36 ROCKY TOP AU21-JEDD-11826 137.131 2021-08-21 10:48:53.929 1213.431 00:09:24
37 ROCKY TOP AU21-PNW-3502 137.131 2021-08-21 10:48:55.598 1213.261 00:09:25
38 TOPIGEONUSA AU21-CORP-0697 145.351 2021-08-21 11:01:04.390 1211.982 00:10:13
39 AMERICAN LOFT AU21-CORP-0329 128.045 2021-08-21 10:36:02.321 1211.358 00:09:06
40 AMERICAN LOFT AU21-CORP-0339 128.045 2021-08-21 10:36:02.979 1211.287 00:09:06
41 TOPIGEONUSA AU21-CORP-0196 145.351 2021-08-21 11:01:13.462 1211.115 00:10:22
42 AMERICAN LOFT AU21-CORP-0332 128.045 2021-08-21 10:36:05.339 1211.031 00:09:09
43 AMERICAN LOFT AU21-CORP-0358 128.045 2021-08-21 10:36:06.025 1210.956 00:09:09
44 AMERICAN LOFT AU21-CORP-0330 128.045 2021-08-21 10:36:10.107 1210.514 00:09:13
45 STEELE LOFT AU21-CORP-0197 146.385 2021-08-21 11:02:50.095 1210.503 00:10:33
46 STEELE LOFT AU21-CORP-0156 146.385 2021-08-21 11:03:02.290 1209.348 00:10:45
47 STEELE LOFT AU21-CORP-0177 146.385 2021-08-21 11:04:38.497 1200.314 00:12:21
48 STEELE LOFT AU21-CORP-0159 146.385 2021-08-21 11:07:11.461 1186.225 00:14:54
49 AMERICAN LOFT AU21-CORP-034O 128.045 2021-08-21 10:40:10.764 1184.984 00:13:14
50 AMERICAN LOFT AU21-CORP-0331 128.045 2021-08-21 10:40:14.361 1184.610 00:13:18
51 AMERICAN LOFT AU21-CORP-0345 128.045 2021-08-21 10:40:18.835 1184.146 00:13:22
52 STEELE LOFT AU21-CORP-0165 146.385 2021-08-21 11:07:37.071 1183.898 00:15:20
53 LUCAS CRAMER AU21-CORP-458 145.627 2021-08-21 11:06:34.922 1183.399 00:15:20
54 LUCAS CRAMER AU21-CORP-466 145.627 2021-08-21 11:06:45.965 1182.395 00:15:31
55 AMERICAN LOFT AU21-CORP-0365 128.045 2021-08-21 10:41:29.022 1176.912 00:14:32
56 AMERICAN LOFT AU21-CORP-0389 128.045 2021-08-21 10:41:31.218 1176.687 00:14:34
57 TOPIGEONUSA AU21-JEDD-1174 145.351 2021-08-21 11:08:38.487 1170.029 00:17:47
58 TOPIGEONUSA AU21-MDC-1204 145.351 2021-08-21 11:08:41.150 1169.792 00:17:49
59 AMERICAN LOFT AU21-CORP-0326 128.045 2021-08-21 10:43:19.641 1165.689 00:16:23
60 AMERICAN LOFT AU21-CORP-0367 128.045 2021-08-21 10:43:20.418 1165.611 00:16:24
61 AMERICAN LOFT AU21-CORP-0366 128.045 2021-08-21 10:43:20.828 1165.569 00:16:24
62 AMERICAN LOFT AU21-CORP-0311 128.045 2021-08-21 10:43:25.654 1165.085 00:16:29
63 AMERICAN LOFT AU21-CORP-0363 128.045 2021-08-21 10:43:31.792 1164.469 00:16:35
64 AMERICAN LOFT AU21-CORP-0341 128.045 2021-08-21 10:43:33.429 1164.305 00:16:37
65 AMERICAN LOFT AU21-CORP-0371 128.045 2021-08-21 10:43:34.009 1164.246 00:16:37
66 LUCAS CRAMER AU21-CORP-414 145.627 2021-08-21 11:12:13.263 1153.370 00:20:59
67 RUETER FAMILY LOFT AU21-CORP-802 144.173 2021-08-21 11:10:44.078 1149.545 00:21:30
68 RUETER FAMILY LOFT AU21-CORP-912 144.173 2021-08-21 11:10:48.103 1149.196 00:21:34
69 TOPIGEONUSA AU21-JEDD-11883 145.351 2021-08-21 11:12:39.912 1148.886 00:21:48
70 RUETER FAMILY LOFT AU21-CORP-839 144.173 2021-08-21 11:10:54.795 1148.615 00:21:41
71 RUETER FAMILY LOFT AU21-CORP-832 144.173 2021-08-21 11:10:59.492 1148.209 00:21:45
72 AMERICAN LOFT AU21-CORP-0344 128.045 2021-08-21 10:46:17.328 1148.102 00:19:21
73 AMERICAN LOFT AU21-CORP-0342 128.045 2021-08-21 10:46:19.184 1147.921 00:19:22
74 AMERICAN LOFT AU21-CORP-0379 128.045 2021-08-21 10:46:23.496 1147.501 00:19:27
75 RUETER FAMILY LOFT AU21-CORP-895 144.173 2021-08-21 11:11:08.880 1147.396 00:21:55
76 RUETER FAMILY LOFT AU21-CORP-861 144.173 2021-08-21 11:11:11.572 1147.163 00:21:58
77 RUETER FAMILY LOFT AU21-CORP-964 144.173 2021-08-21 11:12:03.519 1142.691 00:22:49
78 RUETER FAMILY LOFT AU21-CORP-951 144.173 2021-08-21 11:12:06.677 1142.420 00:22:53
79 RUETER FAMILY LOFT AU21-CORP-850 144.173 2021-08-21 11:12:07.061 1142.387 00:22:53
80 LUCAS CRAMER AU21-CORP-465 145.627 2021-08-21 11:14:21.954 1142.344 00:23:07
81 LUCAS CRAMER AU21-CORP-452 145.627 2021-08-21 11:14:29.857 1141.674 00:23:15
82 RUETER FAMILY LOFT AU21-CORP-811 144.173 2021-08-21 11:13:28.380 1135.459 00:24:14
83 TOPIGEONUSA AU21-JEDD-11881 145.351 2021-08-21 11:16:01.698 1131.792 00:25:10
84 STEELE LOFT AU21-CORP-0164 146.385 2021-08-21 11:17:44.398 1131.278 00:25:27
85 STEELE LOFT AU21-CORP-0113 146.385 2021-08-21 11:17:46.132 1131.135 00:25:29
86 STEELE LOFT AU21-BORD-21053 146.385 2021-08-21 11:17:49.115 1130.888 00:25:32
87 RUETER FAMILY LOFT AU21-CORP-860 144.173 2021-08-21 11:15:28.411 1125.384 00:26:14
88 RUETER FAMILY LOFT AU21-CORP-821 144.173 2021-08-21 11:15:47.882 1123.767 00:26:34
89 TOPIGEONUSA AU21-JEDD-11899 145.351 2021-08-21 11:17:51.414 1122.709 00:27:00
90 STEELE LOFT AU21-CORP-0169 146.385 2021-08-21 11:19:34.623 1122.226 00:27:17
91 LUCAS CRAMER AU21-CORP-451 145.627 2021-08-21 11:18:34.611 1121.299 00:27:20
92 LUCAS CRAMER AU21-CORP-435 145.627 2021-08-21 11:19:07.425 1118.623 00:27:53
93 LUCAS CRAMER AU21-ARC-5149 145.627 2021-08-21 11:19:54.659 1114.793 00:28:40
94 STEELE LOFT AU21-BORD-21047 146.385 2021-08-21 11:21:09.341 1114.562 00:28:52
95 STEELE LOFT AU21-CORP-0104 146.385 2021-08-21 11:21:34.345 1112.556 00:29:17
96 STEELE LOFT AU21-CORP-0124 146.385 2021-08-21 11:21:56.824 1110.759 00:29:39
97 RUETER FAMILY LOFT AU21-CORP-959 144.173 2021-08-21 11:19:13.680 1106.952 00:30:00
98 RUETER FAMILY LOFT AU21-CORP-971 144.173 2021-08-21 11:19:20.125 1106.433 00:30:06
99 RUETER FAMILY LOFT AU21-CORP-900 144.173 2021-08-21 11:19:24.808 1106.057 00:30:11
100 AMERICAN LOFT AU21-CORP-0314 128.045 2021-08-21 10:54:01.361 1104.581 00:27:05
101 RUETER FAMILY LOFT AU21-CORP-873 144.173 2021-08-21 11:19:48.078 1104.190 00:30:34
102 RUETER FAMILY LOFT AU21-CORP-822 144.173 2021-08-21 11:19:55.832 1103.570 00:30:42
103 RUETER FAMILY LOFT AU21-CORP-812 144.173 2021-08-21 11:19:56.901 1103.484 00:30:43
104 RUETER FAMILY LOFT AU21-CORP-949 144.173 2021-08-21 11:20:06.228 1102.739 00:30:52
105 RUETER FAMILY LOFT AU21-CORP-892 144.173 2021-08-21 11:20:57.455 1098.662 00:31:43
106 LUCAS CRAMER AU21-CORP-445 145.627 2021-08-21 11:24:12.846 1094.311 00:32:58
107 RUETER FAMILY LOFT AU21-CORP-942 144.173 2021-08-21 11:22:25.955 1091.690 00:33:12
108 AMERICAN LOFT AU21-CORP-0349 128.045 2021-08-21 10:56:56.532 1088.997 00:30:00
109 RUETER FAMILY LOFT AU21-CORP-968 144.173 2021-08-21 11:23:19.576 1087.509 00:34:06
110 RUETER FAMILY LOFT AU21-CORP-965 144.173 2021-08-21 11:23:57.102 1084.602 00:34:43
111 AMERICAN LOFT AU21-CORP-0374 128.045 2021-08-21 10:59:51.521 1073.863 00:32:55
112 AMERICAN LOFT AU21-CORP-0305 128.045 2021-08-21 10:59:58.902 1073.234 00:33:02
113 AMERICAN LOFT AU21-CORP-0322 128.045 2021-08-21 11:00:25.068 1071.010 00:33:28
114 RUETER FAMILY LOFT AU21-CORP-953 144.173 2021-08-21 11:28:48.849 1062.518 00:39:35
115 RUETER FAMILY LOFT AU21-CORP-954 144.173 2021-08-21 11:29:06.439 1061.215 00:39:52
116 AMERICAN LOFT AU21-CORP-0375 128.045 2021-08-21 11:03:46.567 1054.185 00:36:50
117 AMERICAN LOFT AU21-CORP-0368 128.045 2021-08-21 11:03:53.365 1053.626 00:36:57
118 STEELE LOFT AU21-CORP-0142 146.385 2021-08-21 11:37:17.521 1041.834 00:45:00
119 LUCAS CRAMER AU21-CORP-453 145.627 2021-08-21 11:36:37.482 1039.243 00:45:23
120 RUETER FAMILY LOFT AU21-CORP-884 144.173 2021-08-21 11:37:40.717 1024.490 00:48:27
121 RUETER FAMILY LOFT AU21-CORP-819 144.173 2021-08-21 11:38:09.603 1022.503 00:48:56
122 STEELE LOFT AU21-CORP-0141 146.385 2021-08-21 11:42:34.571 1020.038 00:50:17
123 RUETER FAMILY LOFT AU21-CORP-950 144.173 2021-08-21 11:39:24.058 1017.415 00:50:10
124 RUETER FAMILY LOFT AU21-CORP-817 144.173 2021-08-21 11:45:25.678 993.409 00:56:12
125 RUETER FAMILY LOFT AU21-CORP-876 144.173 2021-08-21 11:47:39.901 984.784 00:58:26
126 RUETER FAMILY LOFT AU21-CORP-809 144.173 2021-08-21 11:49:38.514 977.286 01:00:24
127 RUETER FAMILY LOFT AU21-CORP-966 144.173 2021-08-21 12:03:50.706 926.598 01:14:37
128 ROCKY TOP AU21-PNW-3508 137.131 2021-08-21 11:58:30.095 898.877 01:19:00
129 ROCKY TOP AU21-CORP-0752 137.131 2021-08-21 12:11:58.657 855.919 01:32:29
130 STEELE LOFT AU21-CORP-0145 146.385 2021-08-21 12:43:53.921 820.766 01:51:36
131 LUCAS CRAMER AU21-CORP-434 145.627 2021-08-21 12:55:27.966 787.495 02:04:13
132 ROCKY TOP AU21-CORP-0771 137.131 2021-08-21 12:37:43.342 784.311 01:58:13
133 ROCKY TOP AU21-ARPU-11232 137.131 2021-08-21 12:39:05.287 780.845 01:59:35
134 STEELE LOFT AU21-CORP-0129 146.385 2021-08-21 13:41:39.859 693.199 02:49:22
135 TOPIGEONUSA AU21-MDC-1223 145.351 2021-08-21 13:40:26.798 690.564 02:49:35
136 ROCKY TOP AU21-ARPU-11206 137.131 2021-08-21 13:37:42.915 656.350 02:58:13
137 AMERICAN LOFT AU21-CORP-0355 128.045 2021-08-21 13:37:11.780 613.730 03:10:15
138 RUETER FAMILY LOFT AU21-CORP-915 144.173 2021-08-21 14:33:09.685 599.640 03:43:56
139 RUETER FAMILY LOFT AU21-CORP-947 144.173 2021-08-21 14:33:33.501 599.078 03:44:19
140 AMERICAN LOFT AU21-CORP-0387 128.045 2021-08-21 15:32:25.478 467.139 05:05:29
141 LUCAS CRAMER AU21-CORP-449 145.627 2021-08-21 16:47:25.879 459.793 05:56:11
142 STEELE LOFT AU21-CORP-0109 146.385 2021-08-21 18:45:07.031 381.619 07:52:50
143 STEELE LOFT AU21-CORP-0172 146.385 2021-08-22 07:35:55.184 290.360 11:25:01
144 RUETER FAMILY LOFT AU21-CORP-803 144.173 2021-08-22 08:39:11.453 266.938 12:31:20
145 ROCKY TOP AU21-CORP-0751 137.131 2021-08-22 08:05:54.033 263.114 12:07:47
146 RUETER FAMILY LOFT AU21-CORP-940 144.173 2021-08-22 09:55:39.357 247.064 13:47:48
147 RUETER FAMILY LOFT AU21-CORP-824 144.173 2021-08-22 10:37:34.718 237.375 14:29:44
148 RUETER FAMILY LOFT AU21-CORP-893 144.173 2021-08-22 11:00:52.044 232.313 14:53:01
149 LUCAS CRAMER AU21-CORP-448 145.627 2021-08-22 23:36:40.523 155.569 24:06:17
AMERICAN LOFT AU21-CORP-0338 0 0000-00-00 00:00:00.000 0.000 00:00:00
AMERICAN LOFT AU21-CORP-0372 0 0000-00-00 00:00:00.000 0.000 00:00:00
AMERICAN LOFT AU21-CORP-0380 0 0000-00-00 00:00:00.000 0.000 00:00:00
JACKSONS LOFT AU21-AA-28707 0 0000-00-00 00:00:00.000 0.000 00:00:00
JACKSONS LOFT AU21-AA-28711 0 0000-00-00 00:00:00.000 0.000 00:00:00
JACKSONS LOFT AU21-AA-28713 0 0000-00-00 00:00:00.000 0.000 00:00:00
JACKSONS LOFT AU21-ARPU-11223 0 0000-00-00 00:00:00.000 0.000 00:00:00
JACKSONS LOFT AU21-FOYS-2512 0 0000-00-00 00:00:00.000 0.000 00:00:00
JACKSONS LOFT AU21-FOYS-8808 0 0000-00-00 00:00:00.000 0.000 00:00:00
JACKSONS LOFT AU21-IND-7191 0 0000-00-00 00:00:00.000 0.000 00:00:00
JACKSONS LOFT AU21-JEDD-21410 0 0000-00-00 00:00:00.000 0.000 00:00:00
JACKSONS LOFT AU21-KEYW-0127 0 0000-00-00 00:00:00.000 0.000 00:00:00
JACKSONS LOFT AU21-KEYW-0130 0 0000-00-00 00:00:00.000 0.000 00:00:00
JACKSONS LOFT AU21-KEYW-0134 0 0000-00-00 00:00:00.000 0.000 00:00:00
JACKSONS LOFT AU21-MAGI-0034 0 0000-00-00 00:00:00.000 0.000 00:00:00
JACKSONS LOFT AU21-MAGI-0036 0 0000-00-00 00:00:00.000 0.000 00:00:00
JACKSONS LOFT AU21-MAGI-0039 0 0000-00-00 00:00:00.000 0.000 00:00:00
JACKSONS LOFT AU21-MAGI-0043 0 0000-00-00 00:00:00.000 0.000 00:00:00
JACKSONS LOFT AU21-RARE-0015 0 0000-00-00 00:00:00.000 0.000 00:00:00
JACKSONS LOFT AU21-RENO-0371 0 0000-00-00 00:00:00.000 0.000 00:00:00
JACKSONS LOFT AU21-RENO-0378 0 0000-00-00 00:00:00.000 0.000 00:00:00
JACKSONS LOFT IF21-FOYS-0744 0 0000-00-00 00:00:00.000 0.000 00:00:00
JACKSONS LOFT IF21-FOYS-0751 0 0000-00-00 00:00:00.000 0.000 00:00:00
JACKSONS LOFT IF21-FOYS-0752 0 0000-00-00 00:00:00.000 0.000 00:00:00
LUCAS CRAMER AU21-CORP-461 0 0000-00-00 00:00:00.000 0.000 00:00:00
ROCKY TOP AU21-CORP-0731 0 0000-00-00 00:00:00.000 0.000 00:00:00
ROCKY TOP AU21-CORP-0741 0 0000-00-00 00:00:00.000 0.000 00:00:00
ROCKY TOP AU21-CORP-0746 0 0000-00-00 00:00:00.000 0.000 00:00:00
ROCKY TOP AU21-CORP-0748 0 0000-00-00 00:00:00.000 0.000 00:00:00
ROCKY TOP AU21-CORP-0772 0 0000-00-00 00:00:00.000 0.000 00:00:00
ROCKY TOP AU21-CORP-0773 0 0000-00-00 00:00:00.000 0.000 00:00:00
RUETER FAMILY LOFT AU21-CORP-901 0 0000-00-00 00:00:00.000 0.000 00:00:00
STEELE LOFT AU21-CORP-0251 0 0000-00-00 00:00:00.000 0.000 00:00:00
TOPIGEONUSA AU21-JEDD-1103 0 0000-00-00 00:00:00.000 0.000 00:00:00
TOPIGEONUSA AU21-JEDD-11820 0 0000-00-00 00:00:00.000 0.000 00:00:00